Time;durP1;ratioP1;P1;durP2;ratioP2;P2;SDS_P1;SDS_P2;PMS_P1;PMS_P2;Temp;Humidity;BMP_temperature;BMP_pressure;BME280_temperature;BME280_humidity;BME280_pressure;Samples;Min_cycle;Max_cycle;Signal;HPM_P1;HPM_P2
2021/12/31 00:01:17;;;;;;;20.15;3.72;;;11.30;99.90;;;;;;6187096;23;20021;-85
2021/12/31 00:03:43;;;;;;;21.92;4.25;;;11.30;99.90;;;;;;6159398;23;20036;-84
2021/12/31 00:06:09;;;;;;;14.95;3.58;;;11.30;99.90;;;;;;6186559;23;20025;-84
2021/12/31 00:08:35;;;;;;;19.38;5.22;;;11.30;99.90;;;;;;6159727;23;20032;-85
2021/12/31 00:11:08;;;;;;;17.10;3.67;;;11.20;99.90;;;;;;6160278;23;20088;-84
2021/12/31 00:13:34;;;;;;;25.73;4.07;;;11.30;99.90;;;;;;6159172;23;20027;-85
2021/12/31 00:15:59;;;;;;;19.42;3.70;;;11.30;99.90;;;;;;6187278;23;20048;-85
2021/12/31 00:18:28;;;;;;;21.60;3.47;;;11.30;99.90;;;;;;6167602;23;20016;-84
2021/12/31 00:20:57;;;;;;;14.88;3.95;;;11.30;99.90;;;;;;6160189;23;20025;-84
2021/12/31 00:23:25;;;;;;;19.90;4.75;;;11.30;99.90;;;;;;6160236;23;20494;-84
2021/12/31 00:25:52;;;;;;;26.05;4.63;;;11.30;99.90;;;;;;6136011;23;20067;-84
2021/12/31 00:28:18;;;;;;;19.42;4.25;;;11.30;99.90;;;;;;6160964;23;20025;-84
2021/12/31 00:30:52;;;;;;;22.60;4.65;;;11.30;99.90;;;;;;6189730;23;20021;-82
2021/12/31 00:33:18;;;;;;;24.35;4.93;;;11.30;99.90;;;;;;6137162;23;20021;-85
2021/12/31 00:35:44;;;;;;;22.73;4.53;;;11.40;99.90;;;;;;6187270;23;20017;-84
2021/12/31 00:38:22;;;;;;;27.70;5.50;;;11.30;99.90;;;;;;6135642;23;20482;-85
2021/12/31 00:40:52;;;;;;;22.67;4.40;;;11.30;99.90;;;;;;6187168;23;20028;-85
2021/12/31 00:43:20;;;;;;;21.00;3.92;;;11.30;99.90;;;;;;6186593;23;20066;-85
2021/12/31 00:45:49;;;;;;;19.65;4.18;;;11.30;99.90;;;;;;6185961;23;20029;-85
2021/12/31 00:48:16;;;;;;;20.70;3.97;;;11.30;99.90;;;;;;6185081;23;20025;-85
2021/12/31 00:51:02;;;;;;;26.73;4.30;;;11.30;99.90;;;;;;6186846;23;20352;-85
2021/12/31 00:53:43;;;;;;;23.52;4.53;;;11.30;99.90;;;;;;6143155;23;20032;-85
2021/12/31 00:56:09;;;;;;;26.35;4.93;;;11.20;99.90;;;;;;6141733;23;20028;-85
2021/12/31 00:58:41;;;;;;;23.80;4.35;;;11.30;99.90;;;;;;6112969;23;20103;-84
2021/12/31 01:01:16;;;;;;;22.48;5.93;;;11.20;99.90;;;;;;6162072;23;20104;-86
2021/12/31 01:03:46;;;;;;;22.30;4.55;;;11.30;99.90;;;;;;6186911;23;20033;-84
2021/12/31 01:06:21;;;;;;;18.40;4.35;;;11.30;99.90;;;;;;6187047;23;20082;-85
2021/12/31 01:08:47;;;;;;;24.15;5.15;;;11.30;99.90;;;;;;6185279;23;20025;-85
2021/12/31 01:11:13;;;;;;;28.20;4.13;;;11.30;99.90;;;;;;6128278;23;20032;-85
2021/12/31 01:16:40;;;;;;;29.67;4.65;;;11.30;99.90;;;;;;6152858;23;20017;-85
2021/12/31 01:21:58;;;;;;;18.25;4.05;;;11.40;99.90;;;;;;6093847;23;20030;-86
2021/12/31 01:24:28;;;;;;;26.10;4.30;;;11.40;99.90;;;;;;6069919;23;20027;-85
2021/12/31 01:26:54;;;;;;;19.52;4.90;;;11.40;99.90;;;;;;6094242;23;20076;-86
2021/12/31 01:29:23;;;;;;;21.10;3.90;;;11.40;99.90;;;;;;6071744;23;20019;-85
2021/12/31 01:31:51;;;;;;;16.20;4.28;;;11.40;99.90;;;;;;6100221;23;20033;-85
2021/12/31 01:34:24;;;;;;;22.45;4.47;;;11.40;99.90;;;;;;6076147;23;20027;-85
2021/12/31 01:36:53;;;;;;;19.33;4.15;;;11.50;99.90;;;;;;6071344;23;20030;-85
2021/12/31 01:39:19;;;;;;;21.33;4.95;;;11.40;99.90;;;;;;6070843;23;20105;-85
2021/12/31 01:41:45;;;;;;;16.65;4.18;;;11.40;99.90;;;;;;6069986;23;20383;-85
2021/12/31 01:44:11;;;;;;;22.60;4.70;;;11.50;99.90;;;;;;6069271;23;20054;-84
2021/12/31 01:46:51;;;;;;;26.65;4.60;;;11.50;99.90;;;;;;6093740;23;20049;-85
2021/12/31 01:49:20;;;;;;;26.13;5.03;;;11.50;99.90;;;;;;6095134;23;20101;-86
2021/12/31 01:51:46;;;;;;;25.40;4.82;;;11.50;99.90;;;;;;6185108;23;20025;-85
2021/12/31 01:54:11;;;;;;;21.10;4.00;;;11.50;99.90;;;;;;6185647;23;20021;-85
2021/12/31 01:56:38;;;;;;;17.88;4.43;;;11.50;99.90;;;;;;6183548;23;20465;-85
2021/12/31 01:59:06;;;;;;;20.70;3.97;;;11.50;99.90;;;;;;6158601;23;20020;-85
2021/12/31 02:01:34;;;;;;;32.60;7.43;;;11.50;99.90;;;;;;6184828;23;20041;-84
2021/12/31 02:04:00;;;;;;;26.98;4.95;;;11.50;99.90;;;;;;6185974;23;20025;-85
2021/12/31 02:06:26;;;;;;;24.52;5.22;;;11.40;99.90;;;;;;6184791;23;20084;-85
2021/12/31 02:08:52;;;;;;;22.73;4.43;;;11.50;99.90;;;;;;6158590;23;20052;-85
2021/12/31 02:11:20;;;;;;;20.48;4.40;;;11.50;99.90;;;;;;6158919;23;20029;-85
2021/12/31 02:13:47;;;;;;;17.13;3.97;;;11.50;99.90;;;;;;6134642;23;20021;-86
2021/12/31 02:16:13;;;;;;;22.30;5.22;;;11.60;99.90;;;;;;6188371;23;20025;-84
2021/12/31 02:18:42;;;;;;;17.58;4.63;;;11.60;99.90;;;;;;6194814;23;20036;-83
2021/12/31 02:21:11;;;;;;;23.80;5.22;;;11.60;99.90;;;;;;6189028;23;20021;-87
2021/12/31 02:24:01;;;;;;;22.85;4.63;;;11.60;99.90;;;;;;6184905;23;20095;-84
2021/12/31 02:26:25;;;;;;;23.05;5.80;;;11.60;99.90;;;;;;6184227;23;20441;-85
2021/12/31 02:28:51;;;;;;;19.25;3.83;;;11.70;99.90;;;;;;6184570;23;20024;-85
2021/12/31 02:31:16;;;;;;;14.93;4.05;;;11.70;99.90;;;;;;6134051;23;20130;-85
2021/12/31 02:33:44;;;;;;;16.95;4.85;;;11.70;99.90;;;;;;6133874;23;20330;-86
2021/12/31 02:36:13;;;;;;;17.92;3.58;;;11.80;99.90;;;;;;6134156;23;20047;-85
2021/12/31 02:38:39;;;;;;;24.45;4.50;;;11.70;99.90;;;;;;6157930;23;20466;-85
2021/12/31 02:41:09;;;;;;;20.65;5.95;;;11.70;99.90;;;;;;6158588;23;20056;-85
2021/12/31 02:43:35;;;;;;;19.00;4.38;;;11.70;99.90;;;;;;6134211;23;20056;-84
2021/12/31 02:46:01;;;;;;;13.55;3.30;;;11.70;99.90;;;;;;6158856;23;20055;-86
2021/12/31 02:48:27;;;;;;;22.02;4.88;;;11.70;99.90;;;;;;6185086;23;20112;-87
2021/12/31 02:50:58;;;;;;;16.33;3.95;;;11.60;99.90;;;;;;6183343;23;20021;-88
2021/12/31 02:53:41;;;;;;;19.65;4.40;;;11.60;99.90;;;;;;6185224;23;20036;-85
2021/12/31 02:56:12;;;;;;;15.98;3.63;;;11.70;99.90;;;;;;6161919;23;20032;-84
2021/12/31 02:58:40;;;;;;;13.82;3.47;;;11.70;99.90;;;;;;6169511;23;20519;-84
2021/12/31 03:01:08;;;;;;;19.30;3.53;;;11.70;99.90;;;;;;6197617;23;20021;-85
2021/12/31 03:03:41;;;;;;;18.08;3.80;;;11.80;99.90;;;;;;6162398;23;20024;-84
2021/12/31 03:06:09;;;;;;;23.67;4.13;;;11.70;99.90;;;;;;6160004;23;20449;-87
2021/12/31 03:08:46;;;;;;;14.50;3.50;;;11.80;99.90;;;;;;6160182;23;20021;-86
2021/12/31 03:11:13;;;;;;;19.02;3.78;;;11.80;99.90;;;;;;6159957;23;20044;-85
2021/12/31 03:13:39;;;;;;;17.23;3.22;;;11.90;99.90;;;;;;6159165;23;20021;-86
2021/12/31 03:16:07;;;;;;;15.07;3.80;;;11.90;99.90;;;;;;6159953;23;20353;-86
2021/12/31 03:18:33;;;;;;;19.15;4.13;;;11.90;99.90;;;;;;6160099;23;20111;-87
2021/12/31 03:21:05;;;;;;;15.85;3.90;;;11.90;99.90;;;;;;6159781;23;20322;-86
2021/12/31 03:23:32;;;;;;;13.27;3.88;;;11.80;99.90;;;;;;6159385;23;20021;-85
2021/12/31 03:25:58;;;;;;;17.48;3.70;;;11.80;99.90;;;;;;6135169;23;20021;-86
2021/12/31 03:28:25;;;;;;;19.35;3.65;;;11.90;99.90;;;;;;6160245;23;20487;-87
2021/12/31 03:30:51;;;;;;;17.85;4.20;;;11.80;99.90;;;;;;6159306;23;20021;-85
2021/12/31 03:33:17;;;;;;;14.15;3.50;;;11.90;99.90;;;;;;6186657;23;20056;-86
2021/12/31 03:35:43;;;;;;;13.70;3.50;;;11.90;99.90;;;;;;6188064;23;20089;-86
2021/12/31 03:38:09;;;;;;;12.75;3.00;;;11.80;99.90;;;;;;6159797;23;20028;-85
2021/12/31 03:40:35;;;;;;;17.75;3.70;;;11.90;99.90;;;;;;6184588;23;20044;-85
2021/12/31 03:43:01;;;;;;;19.38;3.97;;;11.90;99.90;;;;;;6134926;23;20761;-85
2021/12/31 03:45:27;;;;;;;19.42;4.00;;;11.90;99.90;;;;;;6159679;23;20099;-85
2021/12/31 03:47:53;;;;;;;20.30;4.65;;;11.90;99.90;;;;;;6193122;23;20093;-86
2021/12/31 03:50:19;;;;;;;17.30;3.45;;;11.90;99.90;;;;;;6160452;23;20121;-85
2021/12/31 03:52:45;;;;;;;10.82;3.55;;;11.90;99.90;;;;;;6159978;23;20056;-84
2021/12/31 03:55:11;;;;;;;14.32;3.05;;;11.90;99.90;;;;;;6186506;23;20017;-85
2021/12/31 03:57:38;;;;;;;19.50;3.60;;;11.90;99.90;;;;;;6186933;23;20025;-85
2021/12/31 04:00:05;;;;;;;15.63;3.45;;;11.90;99.90;;;;;;6160045;23;20021;-86
2021/12/31 04:02:31;;;;;;;20.00;3.25;;;11.90;99.90;;;;;;6186672;23;20025;-85
2021/12/31 04:04:57;;;;;;;18.77;3.92;;;11.90;99.90;;;;;;6188315;23;20028;-87
2021/12/31 04:07:23;;;;;;;18.88;3.47;;;11.80;99.90;;;;;;6190864;23;20051;-86
2021/12/31 04:09:49;;;;;;;20.15;4.53;;;11.90;99.90;;;;;;6134022;23;20056;-85
2021/12/31 04:12:20;;;;;;;17.55;3.47;;;11.90;99.90;;;;;;6135005;23;20341;-86
2021/12/31 04:14:46;;;;;;;16.00;3.40;;;11.90;99.90;;;;;;6158997;23;20079;-84
2021/12/31 04:17:11;;;;;;;13.77;2.80;;;11.90;99.90;;;;;;6134259;23;20393;-85
2021/12/31 04:19:37;;;;;;;15.35;2.75;;;11.90;99.90;;;;;;6159223;23;20096;-86
2021/12/31 04:22:06;;;;;;;17.88;3.40;;;11.90;99.90;;;;;;6186543;23;20052;-85
2021/12/31 04:27:11;;;;;;;11.07;3.53;;;11.80;99.90;;;;;;6184491;23;20021;-85
2021/12/31 04:29:36;;;;;;;19.38;3.88;;;11.80;99.90;;;;;;6141572;23;20028;-85
2021/12/31 04:32:03;;;;;;;13.27;2.90;;;11.90;99.90;;;;;;6191010;23;20025;-86
2021/12/31 04:34:30;;;;;;;15.13;3.20;;;11.90;99.90;;;;;;6186350;23;20021;-86
2021/12/31 04:36:57;;;;;;;14.75;3.38;;;11.90;99.90;;;;;;6185423;23;20032;-86
2021/12/31 04:39:23;;;;;;;12.88;3.15;;;11.90;99.90;;;;;;6158912;23;20068;-85
2021/12/31 04:41:49;;;;;;;24.02;4.32;;;12.00;99.90;;;;;;6160360;23;20040;-87
2021/12/31 04:44:15;;;;;;;12.38;3.47;;;11.90;99.90;;;;;;6188613;23;20348;-85
2021/12/31 04:46:41;;;;;;;13.02;2.85;;;11.90;99.90;;;;;;6159131;23;20464;-86
2021/12/31 04:49:07;;;;;;;22.30;4.60;;;11.90;99.90;;;;;;6185962;23;20101;-86
2021/12/31 04:51:33;;;;;;;16.27;3.42;;;11.90;99.90;;;;;;6158911;23;20167;-84
2021/12/31 04:53:59;;;;;;;15.13;3.00;;;11.90;99.90;;;;;;6185674;23;20036;-85
2021/12/31 04:56:25;;;;;;;12.93;3.25;;;11.90;99.90;;;;;;6159119;23;20457;-86
2021/12/31 04:58:51;;;;;;;15.88;3.97;;;11.90;99.90;;;;;;6185817;23;20152;-85
2021/12/31 05:01:21;;;;;;;16.95;2.92;;;11.90;99.90;;;;;;6185862;23;20056;-85
2021/12/31 05:03:47;;;;;;;10.90;2.78;;;11.90;99.90;;;;;;6159729;23;20477;-86
2021/12/31 05:06:13;;;;;;;10.23;2.50;;;11.90;99.90;;;;;;6185663;23;20104;-86
2021/12/31 05:08:39;;;;;;;16.02;3.63;;;11.90;99.90;;;;;;6159856;23;20063;-86
2021/12/31 05:11:05;;;;;;;12.55;3.03;;;11.90;99.90;;;;;;6135805;23;20322;-86
2021/12/31 05:13:30;;;;;;;26.95;4.40;;;11.90;99.90;;;;;;6169145;23;20029;-83
2021/12/31 05:16:02;;;;;;;17.23;3.22;;;12.00;99.90;;;;;;6169252;23;20345;-88
2021/12/31 05:18:27;;;;;;;14.50;2.83;;;12.00;99.90;;;;;;6184340;23;20536;-86
2021/12/31 05:20:53;;;;;;;11.95;4.35;;;12.00;99.90;;;;;;6158654;23;20032;-86
2021/12/31 05:23:19;;;;;;;14.23;3.90;;;11.90;99.90;;;;;;6185196;23;20025;-85
2021/12/31 05:25:45;;;;;;;11.80;3.90;;;11.90;99.90;;;;;;6185276;23;20031;-86
2021/12/31 05:28:15;;;;;;;12.57;2.70;;;11.90;99.90;;;;;;6158847;23;20040;-86
2021/12/31 05:30:41;;;;;;;10.77;3.10;;;11.90;99.90;;;;;;6185313;23;20025;-86
2021/12/31 05:33:07;;;;;;;16.98;2.95;;;11.90;99.90;;;;;;6159194;23;20031;-86
2021/12/31 05:35:33;;;;;;;10.35;3.20;;;11.90;99.90;;;;;;6159578;23;20063;-86
2021/12/31 05:37:59;;;;;;;12.73;4.78;;;11.90;99.90;;;;;;6185513;23;20052;-86
2021/12/31 05:40:25;;;;;;;10.07;2.88;;;11.90;99.90;;;;;;6158458;23;20020;-86
2021/12/31 05:42:51;;;;;;;10.38;2.60;;;11.80;99.90;;;;;;6188485;23;20025;-87
2021/12/31 05:45:18;;;;;;;13.10;3.28;;;11.80;99.90;;;;;;6159912;23;20043;-87
2021/12/31 05:47:44;;;;;;;8.60;2.20;;;11.90;99.90;;;;;;6184548;23;20025;-85
2021/12/31 05:50:27;;;;;;;8.95;2.63;;;12.00;99.90;;;;;;6161534;23;20024;-85
2021/12/31 05:52:55;;;;;;;12.63;2.83;;;11.90;99.90;;;;;;6189916;23;20349;-86
2021/12/31 05:55:21;;;;;;;14.88;2.95;;;12.00;99.90;;;;;;6193458;23;20017;-86
2021/12/31 05:57:47;;;;;;;13.75;3.13;;;12.00;99.90;;;;;;6167065;23;20107;-85
2021/12/31 06:00:13;;;;;;;13.88;2.60;;;12.00;99.90;;;;;;6164144;23;20033;-86
2021/12/31 06:02:39;;;;;;;13.48;3.00;;;12.00;99.90;;;;;;6166197;23;20103;-85
2021/12/31 06:05:05;;;;;;;9.38;2.30;;;11.90;99.90;;;;;;6190675;23;20025;-86
2021/12/31 06:07:31;;;;;;;10.55;2.47;;;11.90;99.90;;;;;;6162335;23;20028;-86
2021/12/31 06:09:56;;;;;;;15.82;3.60;;;12.00;99.90;;;;;;6134187;23;20461;-85
2021/12/31 06:12:24;;;;;;;15.88;3.00;;;11.90;99.90;;;;;;6185447;23;20075;-86
2021/12/31 06:15:08;;;;;;;12.25;2.22;;;11.90;99.90;;;;;;6139431;23;20052;-85
2021/12/31 06:17:35;;;;;;;9.40;2.33;;;12.00;99.90;;;;;;6157735;23;20027;-86
2021/12/31 06:20:01;;;;;;;9.88;2.92;;;12.00;99.90;;;;;;6161570;23;20036;-87
2021/12/31 06:22:29;;;;;;;11.27;2.45;;;12.00;99.90;;;;;;6135378;23;20025;-85
2021/12/31 06:24:55;;;;;;;9.88;2.80;;;11.90;99.90;;;;;;6183394;23;20513;-85
2021/12/31 06:27:20;;;;;;;19.52;3.40;;;11.90;99.90;;;;;;6158457;23;20053;-86
2021/12/31 06:29:46;;;;;;;12.18;2.88;;;12.00;99.90;;;;;;6158213;23;20021;-86
2021/12/31 06:32:13;;;;;;;9.95;3.15;;;12.00;99.90;;;;;;6108843;23;20033;-85
2021/12/31 06:34:39;;;;;;;10.90;3.15;;;12.00;99.90;;;;;;6185265;23;20021;-85
2021/12/31 06:37:13;;;;;;;8.97;2.53;;;11.90;99.90;;;;;;6158723;23;20469;-84
2021/12/31 06:39:41;;;;;;;8.05;3.08;;;11.90;99.90;;;;;;6158696;23;20270;-85
2021/12/31 06:42:07;;;;;;;8.20;2.70;;;11.90;99.90;;;;;;6183476;23;20424;-86
2021/12/31 06:44:34;;;;;;;10.30;2.80;;;11.90;99.90;;;;;;6183446;23;20032;-86
2021/12/31 06:47:01;;;;;;;10.10;2.72;;;11.80;99.90;;;;;;6157879;23;20057;-86
2021/12/31 06:49:27;;;;;;;6.97;2.13;;;11.80;99.90;;;;;;6183729;23;20018;-85
2021/12/31 06:51:59;;;;;;;10.15;2.65;;;11.80;99.90;;;;;;6157895;23;20075;-86
2021/12/31 06:54:24;;;;;;;8.85;2.28;;;11.80;99.90;;;;;;6135466;23;20029;-85
2021/12/31 06:56:50;;;;;;;12.02;2.45;;;11.80;99.90;;;;;;6194311;23;20025;-85
2021/12/31 06:59:16;;;;;;;9.77;2.63;;;11.70;99.90;;;;;;6169411;23;20035;-85
2021/12/31 07:01:42;;;;;;;6.35;2.42;;;11.70;99.90;;;;;;6167762;23;20033;-85
2021/12/31 07:04:08;;;;;;;15.10;2.53;;;11.70;99.90;;;;;;6186431;23;20049;-85
2021/12/31 07:06:35;;;;;;;11.27;3.20;;;11.70;99.90;;;;;;6183158;23;20021;-86
2021/12/31 07:09:02;;;;;;;9.38;2.72;;;11.70;99.90;;;;;;6133017;23;20028;-85
2021/12/31 07:11:28;;;;;;;10.55;2.70;;;11.60;99.90;;;;;;6157537;23;20100;-86
2021/12/31 07:13:53;;;;;;;10.55;2.90;;;11.60;99.90;;;;;;6181972;23;20048;-85
2021/12/31 07:16:20;;;;;;;11.38;2.40;;;11.60;99.90;;;;;;6158071;23;20104;-85
2021/12/31 07:18:46;;;;;;;10.35;2.65;;;11.60;99.90;;;;;;6159011;23;20139;-85
2021/12/31 07:21:12;;;;;;;11.55;2.70;;;11.50;99.90;;;;;;6158353;23;20065;-86
2021/12/31 07:23:38;;;;;;;10.23;2.45;;;11.50;99.90;;;;;;6158654;23;20029;-86
2021/12/31 07:26:03;;;;;;;12.98;2.65;;;11.40;99.90;;;;;;6185359;23;20021;-85
2021/12/31 07:28:33;;;;;;;6.70;2.60;;;11.40;99.90;;;;;;6158207;23;20024;-86
2021/12/31 07:31:00;;;;;;;10.82;2.33;;;11.40;99.90;;;;;;6185118;23;20355;-86
2021/12/31 07:33:49;;;;;;;16.60;4.32;;;11.40;99.90;;;;;;6158474;23;20021;-86
2021/12/31 07:36:14;;;;;;;9.77;2.50;;;11.30;99.90;;;;;;6156976;23;20087;-87
2021/12/31 07:38:47;;;;;;;12.50;3.05;;;11.30;99.90;;;;;;6158451;23;20029;-85
2021/12/31 07:41:13;;;;;;;12.32;2.75;;;11.30;99.90;;;;;;6159293;23;20100;-85
2021/12/31 07:43:39;;;;;;;10.70;2.78;;;11.20;99.90;;;;;;6166200;23;20469;-85
2021/12/31 07:46:04;;;;;;;11.40;2.75;;;11.20;99.90;;;;;;6201105;23;20457;-85
2021/12/31 07:48:30;;;;;;;8.85;3.38;;;11.20;99.90;;;;;;6165771;23;20025;-86
2021/12/31 07:50:59;;;;;;;11.32;2.90;;;11.20;99.90;;;;;;6187161;23;20087;-85
2021/12/31 07:53:27;;;;;;;11.70;2.53;;;11.20;99.90;;;;;;6186843;23;20029;-86
2021/12/31 07:55:53;;;;;;;7.88;2.50;;;11.20;99.90;;;;;;6135257;23;20075;-86
2021/12/31 07:58:19;;;;;;;9.48;2.63;;;11.10;99.90;;;;;;6184476;23;20025;-85
2021/12/31 08:00:45;;;;;;;19.73;3.50;;;11.10;99.90;;;;;;6159631;23;20017;-86
2021/12/31 08:03:11;;;;;;;8.32;2.88;;;11.20;99.90;;;;;;6186719;23;20025;-86
2021/12/31 08:05:38;;;;;;;11.65;2.88;;;11.20;99.90;;;;;;6160226;23;20398;-86
2021/12/31 08:08:05;;;;;;;10.18;2.67;;;11.20;99.90;;;;;;6135109;23;20025;-87
2021/12/31 08:10:32;;;;;;;14.15;3.00;;;11.10;99.90;;;;;;6159970;23;20017;-88
2021/12/31 08:13:01;;;;;;;10.38;2.67;;;11.10;99.90;;;;;;6186320;23;20102;-84
2021/12/31 08:15:28;;;;;;;11.13;2.65;;;11.20;99.90;;;;;;6160448;23;20024;-86
2021/12/31 08:17:54;;;;;;;9.27;3.38;;;11.20;99.90;;;;;;6161823;23;20072;-87
2021/12/31 08:20:21;;;;;;;16.30;3.25;;;11.30;99.90;;;;;;6188248;23;20025;-85
2021/12/31 08:22:47;;;;;;;11.57;2.80;;;11.30;99.90;;;;;;6160570;23;20052;-85
2021/12/31 08:25:14;;;;;;;12.65;2.70;;;11.30;99.90;;;;;;6134852;23;20084;-85
2021/12/31 08:27:40;;;;;;;19.55;4.03;;;11.30;99.90;;;;;;6159749;23;20044;-85
2021/12/31 08:30:07;;;;;;;13.57;4.55;;;11.40;99.90;;;;;;6188447;23;20441;-84
2021/12/31 08:32:34;;;;;;;14.10;3.28;;;11.40;99.90;;;;;;6144974;23;20060;-85
2021/12/31 08:35:00;;;;;;;14.57;3.08;;;11.40;99.90;;;;;;6169986;23;20017;-85
2021/12/31 08:37:26;;;;;;;11.18;3.08;;;11.40;99.90;;;;;;6186862;23;20153;-85
2021/12/31 08:39:52;;;;;;;14.23;3.40;;;11.40;99.90;;;;;;6159509;23;20425;-84
2021/12/31 08:42:17;;;;;;;11.65;2.95;;;11.50;99.90;;;;;;6185369;23;20013;-85
2021/12/31 08:44:43;;;;;;;13.52;3.80;;;11.50;99.90;;;;;;6159456;23;20036;-85
2021/12/31 08:47:09;;;;;;;11.15;2.67;;;11.50;99.90;;;;;;6158714;23;20013;-84
2021/12/31 08:49:35;;;;;;;13.45;2.75;;;11.50;99.90;;;;;;6186078;23;20107;-86
2021/12/31 08:52:01;;;;;;;9.45;3.00;;;11.60;99.90;;;;;;6134976;23;20021;-86
2021/12/31 08:54:29;;;;;;;9.13;2.35;;;11.60;99.90;;;;;;6159164;23;20081;-86
2021/12/31 08:56:55;;;;;;;9.98;3.08;;;11.60;99.90;;;;;;6185182;23;20021;-85
2021/12/31 08:59:21;;;;;;;12.18;3.25;;;11.60;99.90;;;;;;6158713;23;20151;-87
2021/12/31 09:01:47;;;;;;;14.60;3.00;;;11.60;99.90;;;;;;6159269;23;20191;-85
2021/12/31 09:04:22;;;;;;;9.80;3.17;;;11.60;99.90;;;;;;6185257;23;20382;-86
2021/12/31 09:06:51;;;;;;;12.65;3.42;;;11.60;99.90;;;;;;6188714;23;20029;-86
2021/12/31 09:09:16;;;;;;;12.25;2.92;;;11.50;99.90;;;;;;6137038;23;20056;-86
2021/12/31 09:11:43;;;;;;;13.65;3.50;;;11.50;99.90;;;;;;6183751;23;20099;-84
2021/12/31 09:14:11;;;;;;;12.68;3.47;;;11.60;99.90;;;;;;6134953;23;20063;-85
2021/12/31 09:16:37;;;;;;;16.42;4.00;;;11.50;99.90;;;;;;6157896;23;20059;-84
2021/12/31 09:19:02;;;;;;;26.17;3.63;;;11.40;99.90;;;;;;6159004;23;20166;-85
2021/12/31 09:21:28;;;;;;;18.90;4.03;;;11.40;99.90;;;;;;6157891;23;20083;-85
2021/12/31 09:23:54;;;;;;;19.42;6.30;;;11.30;99.90;;;;;;6187553;23;20021;-84
2021/12/31 09:26:20;;;;;;;21.13;4.10;;;11.20;99.90;;;;;;6166149;23;20021;-84
2021/12/31 09:28:45;;;;;;;16.45;3.45;;;11.20;99.90;;;;;;6135584;23;20024;-85
2021/12/31 09:31:12;;;;;;;14.95;4.40;;;11.20;99.90;;;;;;6185573;23;20024;-85
2021/12/31 09:33:37;;;;;;;14.98;4.53;;;11.10;99.90;;;;;;6158699;23;20051;-85
2021/12/31 09:36:04;;;;;;;17.77;4.05;;;11.10;99.90;;;;;;6158641;23;20107;-85
2021/12/31 09:38:30;;;;;;;14.80;3.38;;;11.10;99.90;;;;;;6183734;23;20033;-85
2021/12/31 09:40:56;;;;;;;23.30;4.32;;;11.10;99.90;;;;;;6159739;23;20013;-85
2021/12/31 09:43:21;;;;;;;15.50;3.70;;;11.00;99.90;;;;;;6158533;23;20043;-84
2021/12/31 09:45:50;;;;;;;19.70;4.75;;;11.00;99.90;;;;;;6158866;23;20028;-84
2021/12/31 09:48:22;;;;;;;28.27;5.32;;;11.00;99.90;;;;;;6134491;23;20087;-86
2021/12/31 09:50:51;;;;;;;21.58;4.82;;;10.90;99.90;;;;;;6159120;23;20020;-84
2021/12/31 09:53:18;;;;;;;21.58;6.07;;;10.80;99.90;;;;;;6159943;23;20544;-85
2021/12/31 09:55:46;;;;;;;30.65;6.15;;;10.80;99.90;;;;;;6187146;23;20092;-85
2021/12/31 09:58:15;;;;;;;14.07;5.13;;;10.80;99.90;;;;;;6185821;23;20024;-84
2021/12/31 10:00:44;;;;;;;14.90;4.97;;;10.80;99.90;;;;;;6158343;23;20029;-84
2021/12/31 10:03:15;;;;;;;25.17;5.53;;;10.70;99.90;;;;;;6158633;23;20408;-84
2021/12/31 10:05:49;;;;;;;23.60;5.55;;;10.70;99.90;;;;;;6185494;23;20468;-84
2021/12/31 10:08:28;;;;;;;25.67;5.97;;;10.70;99.90;;;;;;6134129;23;20487;-84
2021/12/31 10:11:18;;;;;;;13.45;4.72;;;10.70;99.90;;;;;;6166873;23;20017;-84
2021/12/31 10:13:48;;;;;;;19.35;5.28;;;10.70;99.90;;;;;;6190976;23;20032;-84
2021/12/31 10:16:34;;;;;;;24.23;5.13;;;10.70;99.90;;;;;;6161949;23;20033;-84
2021/12/31 10:19:04;;;;;;;16.02;5.00;;;10.80;99.90;;;;;;6159291;23;20053;-84
2021/12/31 10:21:50;;;;;;;15.82;4.72;;;10.70;99.90;;;;;;6185509;23;20017;-85
2021/12/31 10:24:23;;;;;;;14.90;4.30;;;10.70;99.90;;;;;;6158136;23;20025;-84
2021/12/31 10:26:50;;;;;;;14.70;5.22;;;10.80;99.90;;;;;;6158535;23;20025;-84
2021/12/31 10:29:16;;;;;;;17.85;5.05;;;10.80;99.90;;;;;;6159823;23;20601;-85
2021/12/31 10:31:43;;;;;;;19.13;5.03;;;10.70;99.90;;;;;;6134668;23;20025;-84
2021/12/31 10:34:30;;;;;;;16.67;4.95;;;10.80;99.90;;;;;;6158203;23;20020;-84
2021/12/31 10:37:00;;;;;;;16.95;5.03;;;10.80;99.90;;;;;;6184362;23;20021;-85
2021/12/31 10:39:29;;;;;;;15.80;4.35;;;10.80;99.90;;;;;;6093382;23;20022;-84
2021/12/31 10:42:06;;;;;;;18.85;5.03;;;10.80;99.90;;;;;;6046433;23;20022;-85
2021/12/31 10:44:48;;;;;;;20.23;5.28;;;10.80;99.90;;;;;;6069064;23;20079;-85
2021/12/31 10:47:28;;;;;;;16.83;5.38;;;10.80;99.90;;;;;;6093671;23;20022;-84
2021/12/31 10:50:03;;;;;;;15.90;5.03;;;10.80;99.90;;;;;;6093947;23;20078;-85
2021/12/31 10:52:35;;;;;;;;;;;10.80;99.90;;;;;;6070281;23;20362;-85
2021/12/31 10:55:04;;;;;;;20.15;4.78;;;10.80;99.90;;;;;;6093971;23;19972;-84
2021/12/31 10:57:38;;;;;;;24.05;6.00;;;10.80;99.90;;;;;;6069627;23;20022;-85
2021/12/31 11:00:05;;;;;;;16.48;5.18;;;10.80;99.90;;;;;;6072663;23;20078;-84
2021/12/31 11:02:34;;;;;;;25.63;5.90;;;10.80;99.90;;;;;;6100206;23;20469;-84
2021/12/31 11:05:17;;;;;;;19.73;4.40;;;10.80;99.90;;;;;;6021789;23;20023;-85
2021/12/31 11:07:47;;;;;;;12.65;4.03;;;10.80;99.90;;;;;;6070699;23;20029;-84
2021/12/31 11:10:39;;;;;;;14.05;5.10;;;10.70;99.90;;;;;;6107369;23;20036;-84
2021/12/31 11:13:31;;;;;;;17.95;4.97;;;10.60;99.90;;;;;;6131862;23;20017;-85
2021/12/31 11:15:59;;;;;;;22.05;5.47;;;10.70;99.90;;;;;;6109484;23;20335;-85
2021/12/31 11:18:41;;;;;;;14.23;4.43;;;10.70;99.90;;;;;;6109124;23;20045;-86
2021/12/31 11:21:09;;;;;;;15.27;4.53;;;10.70;99.90;;;;;;6185227;23;20021;-85
2021/12/31 11:23:36;;;;;;;14.70;4.63;;;10.70;99.90;;;;;;6187079;23;20159;-85
2021/12/31 11:26:13;;;;;;;15.32;4.40;;;10.70;99.90;;;;;;6159203;23;20021;-84
2021/12/31 11:28:43;;;;;;;18.73;5.18;;;10.60;99.90;;;;;;6160551;23;20024;-85
2021/12/31 11:31:29;;;;;;;13.40;4.25;;;10.60;99.90;;;;;;6136167;23;20072;-85
2021/12/31 11:34:05;;;;;;;19.77;5.20;;;10.70;99.90;;;;;;6160264;23;20107;-85
2021/12/31 11:36:51;;;;;;;10.32;4.18;;;10.70;99.90;;;;;;6186774;23;20032;-84
2021/12/31 11:39:26;;;;;;;13.18;4.93;;;10.60;99.90;;;;;;6185307;23;20039;-84
2021/12/31 11:41:54;;;;;;;21.70;5.72;;;10.70;99.90;;;;;;6188818;23;20031;-85
2021/12/31 11:44:23;;;;;;;20.90;5.30;;;10.70;99.90;;;;;;6163309;23;20056;-84
2021/12/31 11:46:50;;;;;;;20.25;5.40;;;10.60;99.90;;;;;;6193005;23;20076;-85
2021/12/31 11:49:22;;;;;;;20.90;6.18;;;10.60;99.90;;;;;;6186813;23;20021;-85
2021/12/31 11:52:05;;;;;;;21.48;5.53;;;10.60;99.90;;;;;;6159286;23;20361;-85
2021/12/31 11:54:33;;;;;;;15.60;5.55;;;10.60;99.90;;;;;;6160572;23;20079;-85
2021/12/31 11:57:00;;;;;;;18.48;5.60;;;10.60;99.90;;;;;;6186478;23;20063;-85
2021/12/31 11:59:28;;;;;;;18.08;5.65;;;10.60;99.90;;;;;;6159844;23;20021;-84
2021/12/31 12:02:17;;;;;;;23.02;5.97;;;10.60;99.90;;;;;;6158640;23;20365;-83
2021/12/31 12:04:44;;;;;;;26.98;7.72;;;10.60;99.90;;;;;;6186679;23;20381;-83
2021/12/31 12:07:33;;;;;;;18.08;6.22;;;10.60;99.90;;;;;;6159700;23;20021;-83
2021/12/31 12:09:59;;;;;;;14.85;4.82;;;10.50;99.90;;;;;;6159665;23;20025;-85
2021/12/31 12:12:49;;;;;;;19.52;4.85;;;10.60;99.90;;;;;;6159668;23;20087;-83
2021/12/31 12:15:15;;;;;;;15.05;4.90;;;10.60;99.90;;;;;;6187393;23;20491;-84
2021/12/31 12:17:45;;;;;;;16.30;3.90;;;10.60;99.90;;;;;;6160410;23;20021;-84
2021/12/31 12:20:13;;;;;;;15.23;5.18;;;10.60;99.90;;;;;;6159209;23;20032;-83
2021/12/31 12:22:50;;;;;;;12.10;4.07;;;10.60;99.90;;;;;;6159940;23;20504;-85
2021/12/31 12:25:27;;;;;;;10.23;3.47;;;10.60;99.90;;;;;;6161034;23;20061;-85
2021/12/31 12:28:01;;;;;;;9.18;3.70;;;10.60;99.90;;;;;;6162215;23;20531;-84
2021/12/31 12:30:28;;;;;;;8.50;3.17;;;10.60;99.90;;;;;;6167558;23;20104;-85
2021/12/31 12:35:49;;;;;;;12.60;3.58;;;10.60;99.90;;;;;;6138478;23;20025;-85
2021/12/31 12:38:24;;;;;;;11.02;3.25;;;10.60;99.90;;;;;;6136844;23;20357;-84
2021/12/31 12:40:58;;;;;;;9.82;4.13;;;10.50;99.90;;;;;;6159425;23;20052;-86
2021/12/31 12:43:35;;;;;;;9.90;3.65;;;10.50;99.90;;;;;;6185158;23;20021;-85
2021/12/31 12:46:11;;;;;;;11.15;3.42;;;10.50;99.90;;;;;;6158448;23;20043;-84
2021/12/31 12:48:39;;;;;;;15.15;4.90;;;10.50;99.90;;;;;;6186043;23;20028;-85
2021/12/31 12:51:07;;;;;;;11.68;4.32;;;10.40;99.90;;;;;;6133440;23;20025;-86
2021/12/31 12:53:36;;;;;;;20.10;5.47;;;10.50;99.90;;;;;;6159076;23;20104;-85
2021/12/31 12:56:16;;;;;;;20.85;5.82;;;10.40;99.90;;;;;;6158845;23;20028;-87
2021/12/31 12:58:50;;;;;;;16.83;4.45;;;10.50;99.90;;;;;;6158999;23;20036;-84